createdAt,value
2023-03-04T00:00:43.051Z,102006.91
2023-03-04T00:05:39.377Z,102008.47
2023-03-04T00:10:35.869Z,101999.34
2023-03-04T00:15:32.297Z,102003.72
2023-03-04T00:20:28.665Z,102007.47
2023-03-04T00:25:25.120Z,101998.28
2023-03-04T00:30:21.592Z,102000.00
2023-03-04T00:35:18.056Z,101988.63
2023-03-04T00:40:14.703Z,101996.97
2023-03-04T00:45:11.280Z,101991.06
2023-03-04T00:50:08.141Z,101977.50
2023-03-04T00:55:05.481Z,101966.94
2023-03-04T01:00:01.858Z,101967.59
2023-03-04T01:04:58.233Z,101959.19
2023-03-04T01:09:54.609Z,101951.34
2023-03-04T01:14:53.411Z,101951.00
2023-03-04T01:19:49.862Z,101942.13
2023-03-04T01:24:46.299Z,101950.50
2023-03-04T01:29:42.785Z,101930.47
2023-03-04T01:34:39.224Z,101914.22
2023-03-04T01:39:36.334Z,101919.13
2023-03-04T01:44:33.413Z,101918.31
2023-03-04T01:49:29.824Z,101914.06
2023-03-04T01:54:26.281Z,101905.34
2023-03-04T01:59:24.670Z,101904.84
2023-03-04T02:04:28.918Z,101895.56
2023-03-04T02:09:25.842Z,101892.84
2023-03-04T02:14:22.956Z,101888.28
2023-03-04T02:19:42.058Z,101889.66
2023-03-04T02:24:50.057Z,101879.41
2023-03-04T02:29:46.497Z,101871.84
2023-03-04T02:34:48.419Z,101869.03
2023-03-04T02:39:47.398Z,101862.56
2023-03-04T02:44:47.547Z,101856.00
2023-03-04T02:49:44.469Z,101857.09
2023-03-04T02:54:41.140Z,101857.56
2023-03-04T02:59:39.667Z,101851.09
2023-03-04T03:04:38.879Z,101845.16
2023-03-04T03:09:35.310Z,101842.97
2023-03-04T03:14:31.696Z,101845.41
2023-03-04T03:19:28.074Z,101848.69
2023-03-04T03:24:24.481Z,101825.69
2023-03-04T03:29:20.908Z,101822.72
2023-03-04T03:34:17.393Z,101818.47
2023-03-04T03:39:15.548Z,101823.06
2023-03-04T03:44:12.000Z,101813.34
2023-03-04T03:49:08.592Z,101810.56
2023-03-04T03:54:05.009Z,101819.63
2023-03-04T03:59:01.529Z,101820.16
2023-03-04T04:03:58.041Z,101823.91
2023-03-04T04:08:54.439Z,101809.94
2023-03-04T04:13:50.801Z,101818.81
2023-03-04T04:18:47.381Z,101817.50
2023-03-04T04:23:43.795Z,101795.81
2023-03-04T04:28:40.193Z,101800.25
2023-03-04T04:33:37.352Z,101792.69
2023-03-04T04:38:33.755Z,101778.06
2023-03-04T04:43:30.131Z,101780.81
2023-03-04T04:48:26.616Z,101772.22
2023-03-04T04:53:23.057Z,101766.25
2023-03-04T04:58:19.513Z,101760.28
2023-03-04T05:03:18.358Z,101760.28
2023-03-04T05:08:15.042Z,101759.19
2023-03-04T05:13:11.436Z,101747.81
2023-03-04T05:18:07.809Z,101747.25
2023-03-04T05:23:04.505Z,101749.44
2023-03-04T05:28:02.021Z,101763.56
2023-03-04T05:32:58.578Z,101773.78
2023-03-04T05:37:55.028Z,101780.38
2023-03-04T05:42:51.475Z,101788.84
2023-03-04T05:47:47.914Z,101789.84
2023-03-04T05:52:44.575Z,101785.69
2023-03-04T05:57:40.980Z,101792.50
2023-03-04T06:02:37.805Z,101776.19
2023-03-04T06:07:34.610Z,101774.84
2023-03-04T06:12:31.060Z,101764.53
2023-03-04T06:17:27.529Z,101767.47
2023-03-04T06:22:24.068Z,101764.56
2023-03-04T06:27:20.468Z,101778.94
2023-03-04T06:32:16.982Z,101780.19
2023-03-04T06:37:13.443Z,101772.56
2023-03-04T06:42:09.889Z,101788.81
2023-03-04T06:47:06.911Z,101793.47
2023-03-04T06:52:03.381Z,101786.59
2023-03-04T06:56:59.840Z,101790.00
2023-03-04T07:01:56.409Z,101793.78
2023-03-04T07:06:52.855Z,101800.50
2023-03-04T07:11:49.310Z,101802.22
2023-03-04T07:16:45.729Z,101810.53
2023-03-04T07:21:42.279Z,101814.78
2023-03-04T07:26:39.208Z,101812.03
2023-03-04T07:31:36.892Z,101814.44
2023-03-04T07:36:35.509Z,101815.81
2023-03-04T07:41:32.449Z,101805.13
2023-03-04T07:46:28.988Z,101813.81
2023-03-04T07:51:26.841Z,101821.53
2023-03-04T07:56:26.063Z,101814.66
2023-03-04T08:01:25.261Z,101809.88
2023-03-04T08:06:23.108Z,101817.88
2023-03-04T08:11:20.961Z,101826.31
2023-03-04T08:16:19.063Z,101824.97
2023-03-04T08:21:19.214Z,101823.19
2023-03-04T08:26:27.233Z,101834.03
2023-03-04T08:31:24.761Z,101841.88
2023-03-04T08:36:21.264Z,101847.28
2023-03-04T08:41:17.680Z,101837.59
2023-03-04T08:46:14.269Z,101830.06
2023-03-04T08:51:12.859Z,101841.03
2023-03-04T08:56:10.337Z,101837.34
2023-03-04T09:01:12.230Z,101831.22
2023-03-04T09:06:09.574Z,101837.72
2023-03-04T09:11:06.742Z,101835.13
2023-03-04T09:16:10.816Z,101837.03
2023-03-04T09:21:08.709Z,101840.25
2023-03-04T09:26:20.757Z,101841.53
2023-03-04T09:31:20.411Z,101844.75
2023-03-04T09:36:17.533Z,101843.03
2023-03-04T09:41:21.638Z,101825.47
2023-03-04T09:46:35.496Z,101834.22
2023-03-04T09:51:48.588Z,101828.13
2023-03-04T09:56:44.901Z,101824.59
2023-03-04T10:02:19.732Z,101837.84
2023-03-04T10:07:21.267Z,101831.81
2023-03-04T10:12:24.396Z,101830.63
2023-03-04T10:17:40.362Z,101831.88
2023-03-04T10:22:49.899Z,101826.84
2023-03-04T10:27:56.457Z,101827.06
2023-03-04T10:32:52.871Z,101813.28
2023-03-04T10:37:50.875Z,101808.97
2023-03-04T10:42:50.015Z,101828.47
2023-03-04T10:47:53.296Z,101819.56
2023-03-04T10:52:52.937Z,101823.47
2023-03-04T10:57:55.210Z,101816.88
2023-03-04T11:02:52.939Z,101826.28
2023-03-04T11:07:58.648Z,101820.53
2023-03-04T11:13:12.815Z,101824.13
2023-03-04T11:18:13.658Z,101815.44
2023-03-04T11:23:51.461Z,101825.47
2023-03-04T11:29:05.612Z,101809.06
2023-03-04T11:34:13.627Z,101807.25
2023-03-04T11:39:32.802Z,101812.88
2023-03-04T11:44:30.545Z,101812.84
2023-03-04T11:49:46.617Z,101805.78
2023-03-04T11:55:25.340Z,101798.53
2023-03-04T12:00:40.787Z,101794.19
2023-03-04T12:05:43.294Z,101799.56
2023-03-04T12:11:00.115Z,101797.63
2023-03-04T12:16:14.786Z,101789.63
2023-03-04T12:21:39.531Z,101779.47
2023-03-04T12:27:24.538Z,101780.00
2023-03-04T12:32:21.081Z,101772.78
2023-03-04T12:37:26.500Z,101756.56
2023-03-04T12:42:37.729Z,101760.03
2023-03-04T12:48:00.354Z,101757.06
2023-03-04T12:53:17.540Z,101759.78
2023-03-04T12:58:18.629Z,101745.13
2023-03-04T13:03:38.308Z,101741.22
2023-03-04T13:09:01.248Z,101742.69
2023-03-04T13:14:21.926Z,101747.97
2023-03-04T13:19:55.883Z,101742.59
2023-03-04T13:24:52.513Z,101749.09
2023-03-04T13:29:48.915Z,101729.63
2023-03-04T13:34:52.810Z,101742.91
2023-03-04T13:40:23.095Z,101729.59
2023-03-04T13:45:34.618Z,101735.91
2023-03-04T13:50:45.749Z,101744.44
2023-03-04T13:55:43.990Z,101743.47
2023-03-04T14:00:48.555Z,101734.06
2023-03-04T14:05:45.041Z,101736.72
2023-03-04T14:10:41.827Z,101736.72
2023-03-04T14:15:39.203Z,101745.94
2023-03-04T14:20:39.447Z,101739.03
2023-03-04T14:25:37.010Z,101729.44
2023-03-04T14:30:42.667Z,101735.41
2023-03-04T14:35:47.405Z,101736.00
2023-03-04T14:40:53.058Z,101739.81
2023-03-04T14:45:53.292Z,101732.75
2023-03-04T14:50:51.065Z,101722.72
2023-03-04T14:56:00.971Z,101731.13
2023-03-04T15:01:13.813Z,101724.78
2023-03-04T15:06:18.889Z,101723.72
2023-03-04T15:11:27.170Z,101735.97
2023-03-04T15:16:26.540Z,101739.72
2023-03-04T15:21:32.006Z,67994.34
2023-03-04T15:26:28.402Z,67994.34
2023-03-04T15:31:28.661Z,67994.34
2023-03-04T15:36:25.211Z,101747.44
2023-03-04T15:41:25.203Z,101737.56
2023-03-04T15:46:21.822Z,101733.84
2023-03-04T15:51:22.503Z,101741.34
2023-03-04T15:56:28.037Z,101743.41
2023-03-04T16:01:25.108Z,101732.56
2023-03-04T16:06:23.310Z,101727.84
2023-03-04T16:11:26.672Z,101731.38
2023-03-04T16:16:23.137Z,101726.88
2023-03-04T16:21:23.156Z,101730.63
2023-03-04T16:26:24.505Z,101734.13
2023-03-04T16:31:21.934Z,101724.75
2023-03-04T16:36:19.949Z,101716.75
2023-03-04T16:41:20.279Z,101709.59
2023-03-04T16:46:16.839Z,101714.22
2023-03-04T16:51:18.372Z,101702.19
2023-03-04T16:56:19.094Z,101706.94
2023-03-04T17:01:19.415Z,101712.88
2023-03-04T17:06:16.479Z,101709.75
2023-03-04T17:11:17.255Z,101715.47
2023-03-04T17:16:15.356Z,101726.16
2023-03-04T17:21:15.517Z,101727.47
2023-03-04T17:26:12.201Z,101717.97
2023-03-04T17:31:12.957Z,101716.31
2023-03-04T17:36:15.089Z,101723.19
2023-03-04T17:41:16.415Z,101724.78
2023-03-04T17:46:15.120Z,101738.69
2023-03-04T17:51:12.041Z,101730.56
2023-03-04T17:56:10.573Z,101736.28
2023-03-04T18:01:17.610Z,101744.31
2023-03-04T18:06:14.719Z,101737.06
2023-03-04T18:11:11.608Z,101727.56
2023-03-04T18:16:09.063Z,101731.50
2023-03-04T18:21:05.874Z,101737.84
2023-03-04T18:26:04.275Z,101729.06
2023-03-04T18:31:01.712Z,101735.34
2023-03-04T18:36:05.677Z,101733.72
2023-03-04T18:41:07.535Z,101738.31
2023-03-04T18:46:05.971Z,101728.31
2023-03-04T18:51:02.549Z,101730.56
2023-03-04T18:56:03.640Z,101732.22
2023-03-04T19:01:01.664Z,101724.34
2023-03-04T19:05:59.040Z,101723.94
2023-03-04T19:10:56.094Z,101731.94
2023-03-04T19:15:54.293Z,101729.59
2023-03-04T19:20:50.720Z,101738.06
2023-03-04T19:25:47.477Z,101737.25
2023-03-04T19:30:44.055Z,101737.00
2023-03-04T19:35:42.699Z,101731.88
2023-03-04T19:40:40.420Z,101740.66
2023-03-04T19:45:36.944Z,101737.56
2023-03-04T19:50:33.421Z,101735.84
2023-03-04T19:55:29.910Z,101745.22
2023-03-04T20:00:26.318Z,101752.25
2023-03-04T20:05:22.791Z,101748.84
2023-03-04T20:10:19.579Z,101753.44
2023-03-04T20:15:16.297Z,101750.59
2023-03-04T20:20:14.232Z,101760.38
2023-03-04T20:25:10.668Z,101751.78
2023-03-04T20:30:07.665Z,101750.41
2023-03-04T20:35:04.237Z,101751.78
2023-03-04T20:40:00.655Z,101735.97
2023-03-04T20:44:57.115Z,101739.22
2023-03-04T20:49:53.682Z,101738.66
2023-03-04T20:54:50.083Z,101729.50
2023-03-04T20:59:46.465Z,101720.38
2023-03-04T21:04:43.853Z,101719.88
2023-03-04T21:09:40.511Z,101722.06
2023-03-04T21:14:36.911Z,101715.16
2023-03-04T21:19:36.796Z,101701.66
2023-03-04T21:24:35.571Z,101705.06
2023-03-04T21:29:32.647Z,101703.78
2023-03-04T21:34:39.112Z,101708.22
2023-03-04T21:39:36.426Z,101705.44
2023-03-04T21:44:48.555Z,101697.75
2023-03-04T21:49:45.692Z,101690.00
2023-03-04T21:54:42.123Z,101680.75
2023-03-04T21:59:38.774Z,101692.00
2023-03-04T22:04:35.430Z,101700.97
2023-03-04T22:09:32.205Z,101710.84
2023-03-04T22:14:29.514Z,101708.72
2023-03-04T22:19:29.976Z,101702.53
2023-03-04T22:24:26.368Z,101701.94
2023-03-04T22:29:22.822Z,101695.03
2023-03-04T22:34:19.561Z,101694.31
2023-03-04T22:39:22.746Z,101695.25
2023-03-04T22:44:19.216Z,101687.63
2023-03-04T22:49:15.652Z,101680.59
2023-03-04T22:54:16.273Z,101674.38
2023-03-04T22:59:13.595Z,101674.72
2023-03-04T23:04:10.065Z,101664.41
2023-03-04T23:09:06.748Z,101662.28
2023-03-04T23:14:06.903Z,101663.84
2023-03-04T23:19:04.948Z,101644.94
2023-03-04T23:24:02.661Z,101634.16
2023-03-04T23:29:01.384Z,101631.19
2023-03-04T23:33:58.882Z,101625.00
2023-03-04T23:38:56.215Z,101625.94
2023-03-04T23:43:54.668Z,101623.72
2023-03-04T23:48:52.489Z,101621.03
2023-03-04T23:53:48.933Z,101617.28
2023-03-04T23:58:45.977Z,101619.41
